Time;durP1;ratioP1;P1;durP2;ratioP2;P2;SDS_P1;SDS_P2;PMS_P1;PMS_P2;Temp;Humidity;BMP_temperature;BMP_pressure;BME280_temperature;BME280_humidity;BME280_pressure;Samples;Min_cycle;Max_cycle;Signal;HPM_P1;HPM_P2
2024/01/29 00:00:28;;;;;;;12.52;2.45;;;31.10;91.70;;;;;;4938100;28;20032;-72
2024/01/29 00:02:55;;;;;;;7.72;2.33;;;31.70;91.20;;;;;;4946844;29;20028;-72
2024/01/29 00:05:23;;;;;;;8.55;2.40;;;31.80;91.20;;;;;;4942756;29;20019;-72
2024/01/29 00:07:50;;;;;;;9.23;2.58;;;31.80;92.10;;;;;;4941684;28;20046;-72
2024/01/29 00:10:17;;;;;;;9.57;2.70;;;32.20;90.80;;;;;;4951669;28;20031;-73
2024/01/29 00:12:44;;;;;;;9.77;2.55;;;32.00;90.40;;;;;;4944352;29;20079;-71
2024/01/29 00:15:12;;;;;;;10.00;2.35;;;31.90;90.70;;;;;;4940761;29;20027;-73
2024/01/29 00:17:39;;;;;;;7.85;2.35;;;32.20;91.30;;;;;;4938790;28;20370;-73
2024/01/29 00:20:07;;;;;;;7.90;2.40;;;32.30;90.90;;;;;;4938274;29;20074;-72
2024/01/29 00:22:34;;;;;;;7.03;2.65;;;31.90;90.60;;;;;;4937161;28;20038;-73
2024/01/29 00:25:02;;;;;;;9.60;2.60;;;31.90;90.70;;;;;;4936954;29;20036;-72
2024/01/29 00:27:29;;;;;;;9.90;2.17;;;32.30;90.80;;;;;;4951450;28;20034;-72
2024/01/29 00:29:58;;;;;;;10.45;2.70;;;32.60;90.40;;;;;;4941249;29;20085;-73
2024/01/29 00:32:25;;;;;;;10.00;2.63;;;32.20;90.30;;;;;;4943846;29;20465;-72
2024/01/29 00:34:53;;;;;;;7.43;2.00;;;32.10;90.40;;;;;;4935042;29;20436;-73
2024/01/29 00:37:22;;;;;;;9.65;2.60;;;32.00;90.90;;;;;;4942021;29;20023;-73
2024/01/29 00:39:53;;;;;;;6.70;2.55;;;32.30;89.90;;;;;;4938086;29;20119;-73
2024/01/29 00:42:20;;;;;;;10.45;3.00;;;32.40;90.20;;;;;;4942318;28;20034;-73
2024/01/29 00:44:49;;;;;;;8.65;2.72;;;32.40;91.10;;;;;;4938457;28;20118;-73
2024/01/29 00:47:18;;;;;;;12.38;2.63;;;32.60;90.40;;;;;;4947451;29;20030;-73
2024/01/29 00:49:45;;;;;;;7.78;2.75;;;32.60;90.50;;;;;;4940762;28;20035;-72
2024/01/29 00:52:12;;;;;;;12.60;2.70;;;32.90;90.50;;;;;;4950361;28;20031;-72
2024/01/29 00:54:40;;;;;;;7.32;2.58;;;33.30;89.30;;;;;;4935806;28;20052;-72
2024/01/29 00:57:07;;;;;;;11.48;2.28;;;33.10;89.30;;;;;;4938395;29;20106;-72
2024/01/29 00:59:34;;;;;;;7.88;2.55;;;32.90;89.50;;;;;;4946175;28;20019;-72
2024/01/29 01:02:02;;;;;;;10.55;2.33;;;32.90;90.50;;;;;;4951511;28;20034;-72
2024/01/29 01:04:29;;;;;;;8.40;2.60;;;33.30;90.30;;;;;;4951498;29;20023;-72
2024/01/29 01:06:56;;;;;;;7.05;2.67;;;33.70;88.20;;;;;;4937078;29;20024;-72
2024/01/29 01:09:24;;;;;;;8.85;2.40;;;33.90;88.20;;;;;;4936576;29;20067;-72
2024/01/29 01:11:51;;;;;;;10.70;2.90;;;34.30;87.20;;;;;;4944005;29;20031;-72
2024/01/29 01:14:19;;;;;;;9.38;2.72;;;34.40;87.40;;;;;;4935783;29;20043;-72
2024/01/29 01:16:46;;;;;;;8.18;2.55;;;34.70;86.40;;;;;;4941294;28;20094;-72
2024/01/29 01:19:14;;;;;;;12.98;2.55;;;34.50;86.30;;;;;;4941979;29;20032;-72
2024/01/29 01:21:42;;;;;;;9.60;2.60;;;34.30;85.40;;;;;;4940447;28;20028;-73
2024/01/29 01:24:09;;;;;;;7.97;2.50;;;34.20;85.80;;;;;;4942465;29;20043;-72
2024/01/29 01:26:36;;;;;;;10.50;2.30;;;34.20;86.50;;;;;;4939220;29;20388;-72
2024/01/29 01:29:04;;;;;;;10.75;2.50;;;34.20;85.70;;;;;;4943574;29;20464;-72
2024/01/29 01:31:31;;;;;;;8.60;1.95;;;34.00;86.10;;;;;;4938222;29;20031;-73
2024/01/29 01:33:59;;;;;;;8.52;2.50;;;34.10;86.00;;;;;;4936157;29;20036;-72
2024/01/29 01:36:26;;;;;;;8.75;2.70;;;33.90;84.70;;;;;;4948471;28;20027;-73
2024/01/29 01:38:53;;;;;;;7.07;2.35;;;34.10;87.20;;;;;;4939047;29;20028;-73
2024/01/29 01:41:21;;;;;;;9.77;2.38;;;34.20;86.80;;;;;;4934725;29;20023;-73
2024/01/29 01:43:48;;;;;;;8.25;2.67;;;34.80;86.10;;;;;;4941164;29;20397;-72
2024/01/29 01:46:22;;;;;;;7.38;2.13;;;34.80;84.60;;;;;;4941923;29;20032;-71
2024/01/29 01:48:52;;;;;;;6.97;2.00;;;34.80;83.50;;;;;;4950060;29;20445;-71
2024/01/29 01:51:21;;;;;;;7.72;2.15;;;34.70;82.40;;;;;;4934441;29;20023;-73
2024/01/29 01:53:55;;;;;;;5.80;2.03;;;34.90;83.00;;;;;;4948227;28;20054;-72
2024/01/29 01:56:23;;;;;;;5.65;2.15;;;35.30;84.40;;;;;;4946859;28;20031;-73
2024/01/29 01:58:54;;;;;;;8.10;2.15;;;35.40;81.80;;;;;;4935340;29;20035;-72
2024/01/29 02:01:21;;;;;;;8.10;2.20;;;35.20;80.80;;;;;;4946244;28;20031;-72
2024/01/29 02:03:48;;;;;;;9.05;1.95;;;35.40;82.10;;;;;;4944752;29;20038;-72
2024/01/29 02:06:16;;;;;;;11.05;2.05;;;35.70;79.50;;;;;;4934991;29;20042;-72
2024/01/29 02:08:43;;;;;;;6.97;2.20;;;35.10;80.00;;;;;;4941492;29;20035;-72
2024/01/29 02:11:10;;;;;;;8.80;2.20;;;34.70;83.00;;;;;;4936153;28;20078;-72
2024/01/29 02:13:38;;;;;;;4.90;1.85;;;34.80;81.70;;;;;;4934142;29;20138;-73
2024/01/29 02:16:05;;;;;;;10.05;2.20;;;35.10;82.30;;;;;;4946474;28;20100;-73
2024/01/29 02:18:33;;;;;;;8.73;2.22;;;35.60;81.40;;;;;;4940923;28;20059;-73
2024/01/29 02:21:01;;;;;;;11.75;2.10;;;36.10;83.90;;;;;;4936301;28;20373;-73
2024/01/29 02:23:29;;;;;;;8.52;2.50;;;36.20;79.80;;;;;;4936583;28;20070;-74
2024/01/29 02:25:59;;;;;;;7.60;2.10;;;36.20;79.20;;;;;;4940571;28;20118;-73
2024/01/29 02:28:27;;;;;;;9.32;2.33;;;36.20;79.10;;;;;;4938962;29;20039;-72
2024/01/29 02:30:55;;;;;;;8.55;2.05;;;36.60;79.10;;;;;;4944292;28;20039;-73
2024/01/29 02:33:22;;;;;;;10.20;2.35;;;36.60;78.50;;;;;;4940308;28;20043;-72
2024/01/29 02:35:50;;;;;;;6.47;2.13;;;36.40;76.30;;;;;;4943369;29;20122;-74
2024/01/29 02:38:17;;;;;;;7.88;2.50;;;35.70;78.00;;;;;;4938680;29;20075;-73
2024/01/29 02:40:45;;;;;;;5.35;2.15;;;35.90;79.10;;;;;;4937334;29;20037;-73
2024/01/29 02:43:12;;;;;;;7.57;2.28;;;36.00;78.10;;;;;;4939831;28;20027;-73
2024/01/29 02:45:40;;;;;;;9.48;2.13;;;35.80;78.70;;;;;;4938372;29;20537;-72
2024/01/29 02:48:07;;;;;;;7.90;1.73;;;35.80;80.50;;;;;;4937763;28;20038;-73
2024/01/29 02:50:35;;;;;;;13.38;2.20;;;36.10;77.70;;;;;;4939732;29;20493;-74
2024/01/29 02:53:03;;;;;;;5.45;2.15;;;36.10;77.20;;;;;;4935567;29;20051;-73
2024/01/29 02:55:30;;;;;;;7.18;2.20;;;35.60;78.30;;;;;;4941453;29;20031;-73
2024/01/29 02:57:57;;;;;;;9.35;2.47;;;35.10;80.60;;;;;;4935036;29;20579;-72
2024/01/29 03:00:25;;;;;;;8.68;2.10;;;35.80;81.50;;;;;;4941468;29;20035;-72
2024/01/29 03:02:52;;;;;;;8.38;2.05;;;36.70;78.60;;;;;;4942510;29;20042;-73
2024/01/29 03:05:20;;;;;;;7.53;1.95;;;36.40;78.40;;;;;;4946606;29;20119;-71
2024/01/29 03:07:47;;;;;;;10.60;2.45;;;36.80;76.70;;;;;;4939354;28;20508;-72
2024/01/29 03:10:14;;;;;;;14.38;2.50;;;36.70;77.30;;;;;;4943719;28;20111;-73
2024/01/29 03:12:42;;;;;;;7.30;2.35;;;36.10;76.30;;;;;;4945364;29;20035;-72
2024/01/29 03:15:09;;;;;;;8.63;2.50;;;36.00;77.40;;;;;;4940693;28;20119;-73
2024/01/29 03:17:37;;;;;;;7.75;2.10;;;36.50;78.90;;;;;;4935217;29;20082;-75
2024/01/29 03:20:04;;;;;;;10.35;2.65;;;36.80;77.10;;;;;;4946674;29;20031;-74
2024/01/29 03:22:32;;;;;;;7.70;2.17;;;36.90;74.70;;;;;;4946622;28;20066;-73
2024/01/29 03:24:59;;;;;;;6.30;1.95;;;36.40;74.60;;;;;;4941967;29;20073;-72
2024/01/29 03:27:26;;;;;;;6.03;1.80;;;36.70;77.30;;;;;;4942666;28;20532;-73
2024/01/29 03:29:54;;;;;;;9.50;2.67;;;36.50;76.00;;;;;;4939620;28;20672;-73
2024/01/29 03:32:21;;;;;;;7.97;2.45;;;36.70;78.40;;;;;;4943098;29;20042;-71
2024/01/29 03:34:48;;;;;;;7.93;2.20;;;37.00;75.80;;;;;;4942933;28;20050;-72
2024/01/29 03:37:16;;;;;;;7.95;1.60;;;36.70;74.90;;;;;;4946307;28;20028;-72
2024/01/29 03:39:43;;;;;;;6.55;1.95;;;36.60;76.10;;;;;;4940762;28;20036;-72
2024/01/29 03:42:10;;;;;;;8.23;2.17;;;36.50;75.30;;;;;;4952823;28;20114;-72
2024/01/29 03:44:38;;;;;;;7.53;2.35;;;36.50;75.60;;;;;;4948846;29;20470;-71
2024/01/29 03:47:05;;;;;;;7.10;2.58;;;36.40;75.70;;;;;;4948386;28;20151;-71
2024/01/29 03:49:33;;;;;;;6.72;2.13;;;36.90;75.20;;;;;;4950271;28;20031;-72
2024/01/29 03:52:01;;;;;;;8.55;2.42;;;36.70;75.30;;;;;;4951411;28;20045;-72
2024/01/29 03:54:28;;;;;;;8.95;2.70;;;36.50;74.40;;;;;;4945264;29;20378;-73
2024/01/29 03:56:55;;;;;;;6.60;2.45;;;36.60;74.60;;;;;;4945188;28;20483;-72
2024/01/29 03:59:23;;;;;;;6.30;1.90;;;36.50;75.40;;;;;;4944562;28;20026;-73
2024/01/29 04:01:51;;;;;;;9.95;2.45;;;36.60;75.60;;;;;;4934585;29;20034;-72
2024/01/29 04:04:19;;;;;;;7.40;1.98;;;37.30;77.70;;;;;;4940745;29;20051;-73
2024/01/29 04:06:48;;;;;;;5.00;1.83;;;37.40;77.70;;;;;;4943341;28;20031;-72
2024/01/29 04:09:20;;;;;;;10.05;2.83;;;37.80;75.90;;;;;;4944400;29;20027;-72
2024/01/29 04:11:50;;;;;;;6.97;2.10;;;38.20;74.20;;;;;;4948794;29;20027;-72
2024/01/29 04:14:18;;;;;;;6.15;1.88;;;38.10;71.30;;;;;;4938627;28;20039;-72
2024/01/29 04:16:46;;;;;;;7.53;2.10;;;38.00;73.80;;;;;;4943082;29;20031;-73
2024/01/29 04:19:14;;;;;;;9.77;2.50;;;38.00;72.60;;;;;;4942411;29;20115;-72
2024/01/29 04:21:43;;;;;;;6.72;2.38;;;37.70;71.50;;;;;;4954635;28;20107;-72
2024/01/29 04:24:11;;;;;;;10.45;2.30;;;37.70;72.30;;;;;;4936281;29;20040;-73
2024/01/29 04:26:42;;;;;;;9.57;2.80;;;37.70;72.60;;;;;;4941118;29;20039;-72
2024/01/29 04:29:10;;;;;;;8.23;2.30;;;37.70;71.50;;;;;;4936259;29;20030;-72
2024/01/29 04:31:37;;;;;;;8.32;2.53;;;37.50;71.80;;;;;;4942248;29;20079;-73
2024/01/29 04:34:05;;;;;;;10.02;2.72;;;36.80;71.90;;;;;;4950480;29;20126;-73
2024/01/29 04:36:33;;;;;;;9.73;2.78;;;36.70;73.90;;;;;;4948648;29;20032;-74
2024/01/29 04:39:00;;;;;;;8.63;2.20;;;36.70;76.70;;;;;;4941940;29;20044;-73
2024/01/29 04:41:28;;;;;;;10.50;2.15;;;37.10;73.30;;;;;;4934925;29;20031;-73
2024/01/29 04:43:55;;;;;;;10.52;2.65;;;37.10;75.10;;;;;;4938695;29;20452;-73
2024/01/29 04:46:24;;;;;;;14.52;2.72;;;36.80;76.70;;;;;;4944703;29;22491;-73
2024/01/29 04:48:51;;;;;;;12.68;3.35;;;36.40;77.90;;;;;;4940307;28;20035;-73
2024/01/29 04:51:20;;;;;;;12.23;3.10;;;36.00;79.20;;;;;;4939598;28;20118;-73
2024/01/29 04:53:48;;;;;;;15.32;2.95;;;36.40;79.60;;;;;;4945194;28;20064;-73
2024/01/29 04:56:15;;;;;;;15.93;2.95;;;36.80;79.70;;;;;;4938188;28;20067;-72
2024/01/29 04:58:42;;;;;;;15.75;2.80;;;37.30;79.40;;;;;;4944356;28;20039;-70
2024/01/29 05:01:10;;;;;;;25.52;3.47;;;37.30;79.00;;;;;;4936707;28;20544;-72
2024/01/29 05:03:37;;;;;;;13.43;3.55;;;37.30;78.60;;;;;;4942287;28;20027;-71
2024/01/29 05:06:05;;;;;;;16.67;2.92;;;36.70;79.60;;;;;;4945457;28;20035;-72
2024/01/29 05:08:32;;;;;;;24.98;3.40;;;36.70;80.40;;;;;;4940051;28;20035;-71
2024/01/29 05:11:00;;;;;;;12.82;3.03;;;36.40;80.60;;;;;;4939968;28;20047;-72
2024/01/29 05:13:27;;;;;;;13.77;3.20;;;36.20;81.40;;;;;;4938073;28;20127;-72
2024/01/29 05:15:54;;;;;;;12.85;2.95;;;36.00;81.40;;;;;;4941299;28;20050;-72
2024/01/29 05:18:22;;;;;;;17.45;3.55;;;35.90;82.50;;;;;;4936240;28;20365;-72
2024/01/29 05:20:49;;;;;;;12.07;3.42;;;35.90;83.80;;;;;;4942924;28;20027;-72
2024/01/29 05:23:17;;;;;;;13.30;2.60;;;35.90;83.60;;;;;;4945558;28;20035;-72
2024/01/29 05:25:44;;;;;;;13.63;3.42;;;35.90;84.20;;;;;;4941337;28;20036;-73
2024/01/29 05:28:12;;;;;;;13.48;3.00;;;35.80;83.10;;;;;;4938861;28;20114;-72
2024/01/29 05:30:39;;;;;;;16.17;2.90;;;35.70;84.40;;;;;;4939749;28;20039;-73
2024/01/29 05:33:06;;;;;;;12.15;2.88;;;35.80;84.50;;;;;;4942935;28;20043;-73
2024/01/29 05:35:34;;;;;;;15.48;3.60;;;35.80;84.20;;;;;;4938816;28;20027;-72
2024/01/29 05:38:01;;;;;;;13.90;3.40;;;35.70;84.80;;;;;;4940000;29;20393;-70
2024/01/29 05:40:28;;;;;;;17.67;3.30;;;35.60;85.20;;;;;;4947077;28;20020;-71
2024/01/29 05:42:56;;;;;;;14.32;3.10;;;35.80;85.00;;;;;;4939898;28;20087;-71
2024/01/29 05:45:23;;;;;;;16.05;3.50;;;35.40;84.80;;;;;;4941591;29;20019;-71
2024/01/29 05:47:51;;;;;;;14.75;3.30;;;34.90;86.70;;;;;;4934650;28;20083;-72
2024/01/29 05:50:18;;;;;;;16.40;3.38;;;34.90;87.80;;;;;;4943966;28;20031;-73
2024/01/29 05:52:46;;;;;;;10.20;2.67;;;34.90;87.50;;;;;;4939870;28;20059;-72
2024/01/29 05:55:13;;;;;;;13.75;2.75;;;35.00;87.20;;;;;;4941059;29;20043;-72
2024/01/29 05:57:40;;;;;;;10.50;2.30;;;35.10;86.80;;;;;;4940999;28;20622;-72
2024/01/29 06:00:11;;;;;;;19.70;3.08;;;35.10;87.60;;;;;;4936995;28;20038;-75
2024/01/29 06:02:43;;;;;;;15.85;3.15;;;35.00;87.30;;;;;;4939315;29;20031;-72
2024/01/29 06:05:11;;;;;;;16.50;3.13;;;35.00;87.50;;;;;;4933417;29;20477;-72
2024/01/29 06:07:42;;;;;;;19.17;3.13;;;34.90;87.70;;;;;;4947770;28;20019;-70
2024/01/29 06:10:13;;;;;;;20.30;3.92;;;34.70;88.20;;;;;;4941338;28;20500;-69
2024/01/29 06:12:40;;;;;;;14.13;3.00;;;34.80;87.70;;;;;;4937117;29;20087;-69
2024/01/29 06:15:08;;;;;;;12.32;2.78;;;34.60;87.30;;;;;;4937523;29;20070;-69
2024/01/29 06:17:36;;;;;;;18.20;3.53;;;34.40;88.50;;;;;;4941330;28;20087;-69
2024/01/29 06:20:04;;;;;;;15.25;2.92;;;34.30;88.90;;;;;;4940005;28;20050;-69
2024/01/29 06:22:31;;;;;;;14.68;3.40;;;34.10;89.40;;;;;;4941824;28;20038;-70
2024/01/29 06:24:59;;;;;;;12.70;2.67;;;34.00;90.00;;;;;;4939775;28;20386;-70
2024/01/29 06:27:26;;;;;;;17.27;3.97;;;33.90;89.50;;;;;;4935878;29;20028;-71
2024/01/29 06:29:54;;;;;;;17.67;3.75;;;33.90;89.60;;;;;;4940787;29;20027;-71
2024/01/29 06:32:21;;;;;;;20.48;4.55;;;33.90;90.30;;;;;;4945235;28;20019;-69
2024/01/29 06:34:50;;;;;;;16.33;3.42;;;33.90;90.30;;;;;;4939030;28;20052;-70
2024/01/29 06:37:17;;;;;;;13.85;3.10;;;34.00;90.00;;;;;;4938275;28;20027;-70
2024/01/29 06:39:44;;;;;;;17.67;3.40;;;33.90;90.30;;;;;;4946309;29;20019;-71
2024/01/29 06:42:12;;;;;;;18.08;3.20;;;33.80;90.50;;;;;;4942498;28;20376;-70
2024/01/29 06:44:41;;;;;;;17.33;3.53;;;33.60;90.50;;;;;;4939876;28;20035;-69
2024/01/29 06:47:08;;;;;;;14.93;2.83;;;33.50;90.80;;;;;;4935516;28;20486;-69
2024/01/29 06:49:35;;;;;;;17.52;3.17;;;33.30;91.00;;;;;;4936956;29;20561;-71
2024/01/29 06:52:03;;;;;;;15.63;3.35;;;33.40;91.20;;;;;;4936501;29;20102;-70
2024/01/29 06:54:30;;;;;;;17.00;2.90;;;33.50;91.30;;;;;;4944281;28;20059;-71
2024/01/29 06:56:58;;;;;;;15.38;3.30;;;33.40;91.30;;;;;;4939217;29;20486;-68
2024/01/29 06:59:26;;;;;;;15.48;3.10;;;33.30;91.50;;;;;;4938932;28;20087;-69
2024/01/29 07:01:58;;;;;;;17.10;3.50;;;33.30;91.50;;;;;;4942687;28;20028;-70
2024/01/29 07:04:26;;;;;;;12.75;2.50;;;33.30;91.80;;;;;;4933133;29;20063;-70
2024/01/29 07:06:55;;;;;;;20.27;3.97;;;33.30;91.70;;;;;;4941985;29;20048;-67
2024/01/29 07:09:22;;;;;;;28.33;5.07;;;33.30;91.60;;;;;;4933673;29;20020;-70
2024/01/29 07:11:49;;;;;;;27.25;4.57;;;33.30;91.70;;;;;;4937632;29;20094;-69
2024/01/29 07:14:16;;;;;;;22.63;5.78;;;33.20;91.90;;;;;;4936849;29;20179;-70
2024/01/29 07:16:44;;;;;;;29.95;5.85;;;33.00;92.00;;;;;;4932919;29;20429;-69
2024/01/29 07:19:12;;;;;;;16.80;3.25;;;32.90;92.00;;;;;;4939431;28;20378;-69
2024/01/29 07:21:41;;;;;;;18.95;3.78;;;32.80;92.30;;;;;;4941820;28;20035;-70
2024/01/29 07:24:08;;;;;;;19.45;4.55;;;32.80;92.30;;;;;;4942100;28;20490;-70
2024/01/29 07:26:36;;;;;;;19.80;3.30;;;32.90;92.30;;;;;;4939726;28;20032;-70
2024/01/29 07:29:03;;;;;;;15.70;3.53;;;32.80;92.20;;;;;;4934631;29;20098;-70
2024/01/29 07:31:30;;;;;;;20.02;3.45;;;32.70;92.60;;;;;;4936376;29;20146;-70
2024/01/29 07:33:58;;;;;;;17.98;3.38;;;32.50;92.70;;;;;;4935198;29;20083;-70
2024/01/29 07:36:26;;;;;;;22.90;3.30;;;32.50;92.90;;;;;;4952384;28;20683;-70
2024/01/29 07:38:53;;;;;;;23.15;3.78;;;32.30;92.80;;;;;;4932955;29;20114;-70
2024/01/29 07:41:20;;;;;;;23.27;3.58;;;32.30;93.00;;;;;;4939929;29;20135;-70
2024/01/29 07:43:49;;;;;;;21.95;3.17;;;32.20;93.00;;;;;;4934995;29;20466;-70
2024/01/29 07:46:16;;;;;;;29.02;3.13;;;32.00;93.40;;;;;;4936374;28;20039;-70
2024/01/29 07:48:44;;;;;;;15.88;3.10;;;31.70;93.70;;;;;;4946341;28;20046;-70
2024/01/29 07:51:12;;;;;;;17.90;3.55;;;31.50;94.10;;;;;;4942134;28;20082;-70
2024/01/29 07:53:39;;;;;;;20.58;4.32;;;31.60;94.20;;;;;;4942206;28;20062;-69
2024/01/29 07:56:07;;;;;;;19.65;3.45;;;31.50;94.30;;;;;;4941141;28;20495;-69
2024/01/29 07:58:37;;;;;;;13.65;2.83;;;31.70;94.20;;;;;;4942873;28;20124;-70
2024/01/29 08:01:05;;;;;;;15.35;3.20;;;31.60;94.00;;;;;;4946228;28;20035;-70
2024/01/29 08:03:33;;;;;;;28.88;4.00;;;31.40;94.40;;;;;;4938931;29;20023;-70
2024/01/29 08:06:00;;;;;;;18.27;3.03;;;31.20;94.50;;;;;;4947427;28;20500;-70
2024/01/29 08:08:28;;;;;;;26.67;3.42;;;30.90;95.00;;;;;;4951430;29;20059;-70
2024/01/29 08:11:00;;;;;;;19.65;3.15;;;30.80;95.20;;;;;;4942031;28;20067;-71
2024/01/29 08:13:28;;;;;;;26.60;3.80;;;30.80;95.40;;;;;;4941173;28;20043;-71
2024/01/29 08:15:56;;;;;;;17.23;3.92;;;30.80;95.40;;;;;;4950783;28;20055;-67
2024/01/29 08:18:23;;;;;;;22.08;3.20;;;30.80;95.60;;;;;;4944387;29;20032;-68
2024/01/29 08:20:51;;;;;;;21.05;3.42;;;30.60;95.60;;;;;;4940109;29;20462;-67
2024/01/29 08:23:18;;;;;;;14.98;3.38;;;30.30;96.00;;;;;;4938176;29;20028;-69
2024/01/29 08:25:46;;;;;;;22.35;3.95;;;30.30;96.10;;;;;;4946445;29;20122;-69
2024/01/29 08:28:13;;;;;;;17.10;3.47;;;30.40;96.10;;;;;;4939852;28;20460;-67
2024/01/29 08:30:40;;;;;;;16.90;2.80;;;30.50;96.10;;;;;;4937857;29;20114;-69
2024/01/29 08:33:08;;;;;;;10.13;2.50;;;30.30;96.30;;;;;;4945252;29;20448;-70
2024/01/29 08:35:36;;;;;;;23.52;3.30;;;30.40;96.20;;;;;;4940763;29;20098;-69
2024/01/29 08:38:03;;;;;;;16.88;2.80;;;30.40;96.20;;;;;;4950328;28;20473;-70
2024/01/29 08:40:32;;;;;;;13.25;2.60;;;30.50;96.20;;;;;;4936701;29;20043;-69
2024/01/29 08:42:59;;;;;;;17.17;2.60;;;30.40;96.30;;;;;;4942739;29;20030;-69
2024/01/29 08:45:26;;;;;;;16.13;3.30;;;30.20;96.40;;;;;;4938878;29;20106;-69
2024/01/29 08:47:54;;;;;;;17.90;3.65;;;30.30;96.50;;;;;;4935359;29;20027;-70
2024/01/29 08:50:21;;;;;;;18.02;3.92;;;30.30;96.40;;;;;;4939892;29;20031;-70
2024/01/29 08:52:49;;;;;;;17.23;2.90;;;30.30;96.60;;;;;;4938804;28;20058;-70
2024/01/29 08:55:16;;;;;;;16.45;3.22;;;30.20;96.70;;;;;;4937396;28;20040;-69
2024/01/29 08:57:43;;;;;;;16.55;2.60;;;30.20;96.90;;;;;;4941887;28;20027;-69
2024/01/29 09:00:11;;;;;;;15.68;3.20;;;30.10;96.90;;;;;;4948648;28;20547;-70
2024/01/29 09:02:38;;;;;;;17.00;3.35;;;30.10;97.00;;;;;;4942602;29;20038;-71
2024/01/29 09:05:06;;;;;;;15.52;2.80;;;30.00;97.20;;;;;;4947621;28;20478;-70
2024/01/29 09:07:34;;;;;;;22.52;3.20;;;30.00;97.30;;;;;;4936964;29;20027;-69
2024/01/29 09:10:01;;;;;;;16.00;2.95;;;29.90;97.50;;;;;;4956899;28;20062;-70
2024/01/29 09:12:28;;;;;;;18.65;3.00;;;29.80;97.60;;;;;;4934705;29;20365;-70
2024/01/29 09:14:56;;;;;;;21.05;3.35;;;29.80;97.80;;;;;;4941038;29;20143;-70
2024/01/29 09:17:23;;;;;;;16.75;3.83;;;29.70;97.90;;;;;;4941797;28;20020;-70
2024/01/29 09:19:51;;;;;;;20.25;3.22;;;29.60;98.00;;;;;;4935074;29;20032;-68
2024/01/29 09:22:19;;;;;;;19.63;3.67;;;29.60;98.30;;;;;;4941335;28;20067;-70
2024/01/29 09:24:46;;;;;;;17.42;3.63;;;29.50;98.40;;;;;;4937913;29;20032;-70
2024/01/29 09:27:14;;;;;;;15.60;3.53;;;29.40;98.60;;;;;;4935753;29;20051;-71
2024/01/29 09:29:41;;;;;;;15.50;3.45;;;29.40;98.60;;;;;;4944378;29;20036;-68
2024/01/29 09:32:11;;;;;;;22.38;3.83;;;29.40;98.70;;;;;;4938751;28;20507;-70
2024/01/29 09:34:38;;;;;;;27.45;3.42;;;29.30;98.70;;;;;;4935940;28;20379;-69
2024/01/29 09:37:06;;;;;;;30.17;4.05;;;29.30;98.90;;;;;;4944040;29;20071;-69
2024/01/29 09:39:33;;;;;;;18.55;3.63;;;29.30;98.90;;;;;;4938136;28;20091;-69
2024/01/29 09:42:05;;;;;;;20.05;3.35;;;29.30;99.00;;;;;;4937145;28;20028;-69
2024/01/29 09:44:39;;;;;;;20.05;3.50;;;29.20;99.10;;;;;;4953540;28;20492;-69
2024/01/29 09:47:07;;;;;;;32.15;4.72;;;29.20;99.20;;;;;;4936747;29;20027;-69
2024/01/29 09:49:35;;;;;;;23.00;3.65;;;29.10;99.40;;;;;;4951859;28;20024;-69
2024/01/29 09:52:10;;;;;;;19.67;4.05;;;29.00;99.60;;;;;;4948846;28;20035;-69
2024/01/29 09:54:38;;;;;;;16.60;3.17;;;29.00;99.70;;;;;;4940997;29;20063;-69
2024/01/29 09:57:06;;;;;;;19.92;3.70;;;29.00;99.70;;;;;;4941892;28;20034;-69
2024/01/29 09:59:33;;;;;;;23.27;4.75;;;29.00;99.70;;;;;;4934519;28;20651;-69
2024/01/29 10:02:03;;;;;;;15.60;3.50;;;28.90;99.90;;;;;;4936687;29;20091;-69
2024/01/29 10:04:30;;;;;;;27.58;3.60;;;28.90;99.90;;;;;;4946048;28;20083;-69
2024/01/29 10:06:58;;;;;;;19.33;4.15;;;28.80;99.90;;;;;;4940733;29;20031;-69
2024/01/29 10:09:25;;;;;;;24.13;4.28;;;28.80;99.90;;;;;;4945621;29;20037;-69
2024/01/29 10:11:53;;;;;;;19.98;3.78;;;28.80;99.90;;;;;;4932537;28;20052;-69
2024/01/29 10:14:20;;;;;;;25.67;4.85;;;28.80;99.90;;;;;;4942541;29;20520;-69
2024/01/29 10:16:49;;;;;;;19.10;3.60;;;28.80;99.90;;;;;;4941664;28;20027;-69
2024/01/29 10:19:17;;;;;;;24.88;4.03;;;28.70;99.90;;;;;;4940648;28;20031;-70
2024/01/29 10:21:48;;;;;;;25.35;3.78;;;28.60;99.90;;;;;;4935440;29;20031;-69
2024/01/29 10:24:17;;;;;;;19.90;3.58;;;28.60;99.90;;;;;;4937984;29;20042;-69
2024/01/29 10:26:45;;;;;;;20.13;3.50;;;28.70;99.90;;;;;;4945138;28;20057;-70
2024/01/29 10:29:15;;;;;;;22.27;4.55;;;28.60;99.90;;;;;;4942554;29;20477;-69
2024/01/29 10:31:43;;;;;;;23.58;4.60;;;28.60;99.90;;;;;;4939426;29;20032;-69
2024/01/29 10:34:10;;;;;;;30.77;4.60;;;28.40;99.90;;;;;;4938044;29;20085;-70
2024/01/29 10:36:40;;;;;;;27.27;4.25;;;28.40;99.90;;;;;;4944551;28;20070;-69
2024/01/29 10:39:11;;;;;;;25.27;4.28;;;28.40;99.90;;;;;;4941100;29;20107;-69
2024/01/29 10:41:39;;;;;;;32.03;5.10;;;28.30;99.90;;;;;;4939548;28;20030;-72
2024/01/29 10:44:07;;;;;;;24.13;4.30;;;28.30;99.90;;;;;;4942854;28;20039;-72
2024/01/29 10:46:36;;;;;;;28.77;4.88;;;28.20;99.90;;;;;;4937074;29;20027;-72
2024/01/29 10:49:05;;;;;;;26.88;4.63;;;28.10;99.90;;;;;;4942241;28;20034;-73
2024/01/29 10:51:33;;;;;;;25.98;4.80;;;28.00;99.90;;;;;;4947613;28;20063;-73
2024/01/29 10:54:02;;;;;;;24.65;4.78;;;27.90;99.90;;;;;;4940771;28;20065;-72
2024/01/29 10:56:30;;;;;;;26.60;4.88;;;27.80;99.90;;;;;;4947352;28;20038;-73
2024/01/29 10:58:59;;;;;;;24.55;4.88;;;27.70;99.90;;;;;;4946846;28;20027;-73
2024/01/29 11:01:27;;;;;;;25.45;5.82;;;27.60;99.90;;;;;;4933660;28;20131;-73
2024/01/29 11:03:57;;;;;;;25.27;4.43;;;27.70;99.90;;;;;;4941374;28;20062;-72
2024/01/29 11:06:37;;;;;;;28.63;5.68;;;27.40;99.90;;;;;;4936815;29;20024;-73
2024/01/29 11:09:12;;;;;;;24.50;4.85;;;27.50;99.90;;;;;;4953054;28;20126;-73
2024/01/29 11:11:44;;;;;;;20.13;4.40;;;27.40;99.90;;;;;;4940638;29;20027;-74
2024/01/29 11:14:11;;;;;;;26.48;4.85;;;27.50;99.90;;;;;;4940763;29;20125;-73
2024/01/29 11:16:40;;;;;;;25.15;4.72;;;27.40;99.90;;;;;;4937608;28;20028;-72
2024/01/29 11:19:08;;;;;;;24.80;4.32;;;27.40;99.90;;;;;;4940712;28;20389;-72
2024/01/29 11:21:43;;;;;;;35.97;4.90;;;27.40;99.90;;;;;;4933504;29;20346;-73
2024/01/29 11:24:12;;;;;;;29.25;5.55;;;27.40;99.90;;;;;;4948541;28;20400;-73
2024/01/29 11:26:39;;;;;;;28.42;5.20;;;27.30;99.90;;;;;;4951119;28;20410;-73
2024/01/29 11:29:09;;;;;;;24.20;5.13;;;27.30;99.90;;;;;;4945910;28;20034;-73
2024/01/29 11:31:45;;;;;;;34.60;5.47;;;27.30;99.90;;;;;;4943903;28;20031;-72
2024/01/29 11:34:14;;;;;;;30.02;5.68;;;27.30;99.90;;;;;;4946766;29;20073;-73
2024/01/29 11:36:42;;;;;;;29.95;6.18;;;27.30;99.90;;;;;;4945696;28;20474;-71
2024/01/29 11:39:14;;;;;;;21.65;4.97;;;27.30;99.90;;;;;;4943839;28;20066;-73
2024/01/29 11:41:49;;;;;;;31.63;4.70;;;27.30;99.90;;;;;;4940382;28;20028;-72
2024/01/29 11:44:22;;;;;;;25.52;5.43;;;27.20;99.90;;;;;;4940818;28;20031;-74
2024/01/29 11:46:50;;;;;;;26.90;4.97;;;27.00;99.90;;;;;;4944787;29;20107;-72
2024/01/29 11:49:28;;;;;;;23.05;4.88;;;26.90;99.90;;;;;;4941613;29;20028;-71
2024/01/29 11:51:56;;;;;;;30.95;5.70;;;26.90;99.90;;;;;;4943356;28;20039;-73
2024/01/29 11:54:25;;;;;;;25.35;4.70;;;26.90;99.90;;;;;;4952509;28;20082;-72
2024/01/29 11:56:52;;;;;;;36.42;6.75;;;26.90;99.90;;;;;;4944574;29;20027;-72
2024/01/29 11:59:20;;;;;;;31.42;5.25;;;26.80;99.90;;;;;;4940438;29;20078;-72
2024/01/29 12:01:50;;;;;;;43.65;7.50;;;26.80;99.90;;;;;;4937502;28;20071;-71
2024/01/29 12:04:17;;;;;;;36.70;9.50;;;26.70;99.90;;;;;;4941357;29;20478;-73
2024/01/29 12:06:44;;;;;;;31.77;7.40;;;26.70;99.90;;;;;;4942926;29;20040;-72
2024/01/29 12:09:12;;;;;;;34.45;6.50;;;26.60;99.90;;;;;;4941456;28;20051;-73
2024/01/29 12:11:39;;;;;;;29.98;6.85;;;26.60;99.90;;;;;;4936008;29;20103;-72
2024/01/29 12:14:09;;;;;;;28.38;5.85;;;26.60;99.90;;;;;;4942749;29;20046;-72
2024/01/29 12:16:36;;;;;;;26.60;6.05;;;26.60;99.90;;;;;;4943436;28;20028;-72
2024/01/29 12:19:04;;;;;;;25.75;6.22;;;26.50;99.90;;;;;;4954589;28;20118;-72
2024/01/29 12:21:34;;;;;;;29.23;5.15;;;26.30;99.90;;;;;;4938247;28;20517;-72
2024/01/29 12:24:02;;;;;;;27.02;4.82;;;26.30;99.90;;;;;;4941609;29;20023;-72
2024/01/29 12:26:30;;;;;;;34.05;6.05;;;26.30;99.90;;;;;;4942058;28;20028;-73
2024/01/29 12:28:59;;;;;;;26.30;5.35;;;26.30;99.90;;;;;;4940779;29;20118;-72
2024/01/29 12:31:26;;;;;;;28.00;4.97;;;26.20;99.90;;;;;;4944574;28;20035;-73
2024/01/29 12:33:54;;;;;;;30.77;4.28;;;26.00;99.90;;;;;;4959264;28;20576;-73
2024/01/29 12:36:21;;;;;;;25.85;3.88;;;26.00;99.90;;;;;;4936649;29;20371;-72
2024/01/29 12:38:54;;;;;;;23.38;4.38;;;26.00;99.90;;;;;;4938004;28;20035;-72
2024/01/29 12:41:22;;;;;;;28.65;4.57;;;26.00;99.90;;;;;;4948789;29;20031;-72
2024/01/29 12:43:52;;;;;;;30.58;5.47;;;26.00;99.90;;;;;;4944130;28;20035;-72